Time;durP1;ratioP1;P1;durP2;ratioP2;P2;SDS_P1;SDS_P2;PMS_P1;PMS_P2;Temp;Humidity;BMP_temperature;BMP_pressure;BME280_temperature;BME280_humidity;BME280_pressure;Samples;Min_cycle;Max_cycle;Signal;HPM_P1;HPM_P2
2023/05/24 00:01:28;;;;;;;;;;;;;;;9.53;68.40;102435.75;5070591;28;19920;-62
2023/05/24 00:03:57;;;;;;;;;;;;;;;9.49;68.46;102429.03;5077272;28;19923;-60
2023/05/24 00:06:25;;;;;;;;;;;;;;;9.43;69.01;102429.53;5071835;28;19950;-60
2023/05/24 00:08:50;;;;;;;;;;;;;;;9.33;68.79;102420.66;5081250;28;19912;-61
2023/05/24 00:11:15;;;;;;;;;;;;;;;9.27;69.08;102426.44;5080589;28;20309;-61
2023/05/24 00:13:40;;;;;;;;;;;;;;;9.20;69.50;102422.59;5073102;28;20011;-60
2023/05/24 00:16:05;;;;;;;;;;;;;;;9.14;69.62;102418.63;5073782;28;20376;-60
2023/05/24 00:18:31;;;;;;;;;;;;;;;9.13;69.51;102421.38;5071184;28;19955;-61
2023/05/24 00:20:57;;;;;;;;;;;;;;;9.15;69.50;102416.81;5069995;28;19920;-61
2023/05/24 00:23:22;;;;;;;;;;;;;;;9.15;69.50;102411.50;5074824;28;19921;-60
2023/05/24 00:25:47;;;;;;;;;;;;;;;9.18;69.45;102411.25;5081887;28;19923;-60
2023/05/24 00:28:13;;;;;;;;;;;;;;;9.22;69.66;102410.03;5070842;28;19912;-61
2023/05/24 00:30:38;;;;;;;;;;;;;;;9.25;69.43;102410.66;5073620;28;19912;-61
2023/05/24 00:33:03;;;;;;;;;;;;;;;9.23;69.81;102406.44;5079971;28;19947;-60
2023/05/24 00:35:28;;;;;;;;;;;;;;;9.17;70.12;102404.28;5070065;28;19920;-60
2023/05/24 00:37:53;;;;;;;;;;;;;;;9.10;70.05;102400.44;5068676;28;19927;-60
2023/05/24 00:40:18;;;;;;;;;;;;;;;9.02;70.38;102397.56;5072463;28;20401;-61
2023/05/24 00:42:44;;;;;;;;;;;;;;;8.94;70.49;102399.00;5081865;28;19920;-60
2023/05/24 00:45:09;;;;;;;;;;;;;;;8.87;70.94;102395.16;5079828;28;19941;-60
2023/05/24 00:47:35;;;;;;;;;;;;;;;8.83;70.59;102404.31;5069542;28;19920;-60
2023/05/24 00:50:00;;;;;;;;;;;;;;;8.82;70.76;102399.97;5075504;28;19920;-60
2023/05/24 00:52:25;;;;;;;;;;;;;;;8.82;70.58;102402.63;5069809;28;20015;-60
2023/05/24 00:54:51;;;;;;;;;;;;;;;8.80;70.86;102399.25;5068993;28;19955;-60
2023/05/24 00:57:17;;;;;;;;;;;;;;;8.82;70.51;102396.47;5072027;28;19912;-60
2023/05/24 00:59:43;;;;;;;;;;;;;;;8.86;70.80;102396.13;5086149;28;19912;-60
2023/05/24 01:02:08;;;;;;;;;;;;;;;8.89;70.75;102387.06;5078350;28;19962;-60
2023/05/24 01:04:34;;;;;;;;;;;;;;;8.86;71.25;102388.16;5074135;28;19923;-60
2023/05/24 01:06:59;;;;;;;;;;;;;;;8.78;71.11;102393.25;5070582;28;19920;-61
2023/05/24 01:09:30;;;;;;;;;;;;;;;8.68;71.35;102387.84;5068393;28;19966;-60
2023/05/24 01:12:06;;;;;;;;;;;;;;;8.58;71.55;102383.34;5072522;28;19916;-60
2023/05/24 01:14:47;;;;;;;;;;;;;;;8.48;72.10;102383.25;5076098;28;20310;-60
2023/05/24 01:17:22;;;;;;;;;;;;;;;8.37;72.47;102383.22;5076781;28;20009;-60
2023/05/24 01:19:47;;;;;;;;;;;;;;;8.24;72.35;102380.63;5070909;28;19922;-60
2023/05/24 01:22:31;;;;;;;;;;;;;;;8.11;73.27;102377.25;5071943;28;20007;-61
2023/05/24 01:25:02;;;;;;;;;;;;;;;8.00;74.23;102380.69;5074246;28;19916;-61
2023/05/24 01:27:29;;;;;;;;;;;;;;;7.94;74.54;102381.16;5069137;28;20008;-61
2023/05/24 01:29:55;;;;;;;;;;;;;;;7.89;74.58;102377.19;5079748;28;20177;-61
2023/05/24 01:32:20;;;;;;;;;;;;;;;7.87;74.98;102373.81;5078683;28;20546;-61
2023/05/24 01:34:45;;;;;;;;;;;;;;;7.84;74.79;102369.59;5077173;28;19962;-61
2023/05/24 01:37:10;;;;;;;;;;;;;;;7.82;74.79;102378.63;5069223;28;19921;-61
2023/05/24 01:39:36;;;;;;;;;;;;;;;7.80;74.89;102373.41;5077807;28;19946;-61
2023/05/24 01:42:07;;;;;;;;;;;;;;;7.78;75.16;102383.25;5076409;28;19913;-61
2023/05/24 01:44:35;;;;;;;;;;;;;;;7.74;74.91;102373.88;5073319;28;19916;-61
2023/05/24 01:47:09;;;;;;;;;;;;;;;7.72;75.36;102367.84;5079560;28;20356;-61
2023/05/24 01:49:37;;;;;;;;;;;;;;;7.68;75.77;102376.97;5068052;28;20007;-61
2023/05/24 01:52:04;;;;;;;;;;;;;;;7.66;75.89;102373.59;5068205;28;19913;-61
2023/05/24 01:54:32;;;;;;;;;;;;;;;7.64;75.99;102368.44;5078225;28;19916;-61
2023/05/24 01:56:57;;;;;;;;;;;;;;;7.62;76.03;102375.63;5076906;28;19974;-60
2023/05/24 01:59:24;;;;;;;;;;;;;;;7.59;76.29;102378.50;5072155;28;20372;-61
2023/05/24 02:01:50;;;;;;;;;;;;;;;7.58;76.08;102386.56;5077929;28;20278;-61
2023/05/24 02:04:15;;;;;;;;;;;;;;;7.54;76.32;102385.94;5072328;28;19923;-61
2023/05/24 02:06:41;;;;;;;;;;;;;;;7.50;76.62;102381.81;5073607;28;19971;-61
2023/05/24 02:09:06;;;;;;;;;;;;;;;7.44;76.73;102392.84;5078711;28;20381;-61
2023/05/24 02:11:31;;;;;;;;;;;;;;;7.39;76.75;102389.69;5072823;28;19920;-61
2023/05/24 02:13:56;;;;;;;;;;;;;;;7.34;76.96;102383.91;5079771;28;20547;-61
2023/05/24 02:16:25;;;;;;;;;;;;;;;7.34;76.81;102384.75;5078067;28;20018;-60
2023/05/24 02:18:51;;;;;;;;;;;;;;;7.34;77.27;102391.84;5074191;28;20009;-61
2023/05/24 02:21:16;;;;;;;;;;;;;;;7.32;77.47;102388.47;5083087;28;19962;-60
2023/05/24 02:23:41;;;;;;;;;;;;;;;7.28;77.71;102390.50;5076190;28;20023;-60
2023/05/24 02:26:10;;;;;;;;;;;;;;;7.28;77.85;102394.94;5088844;28;19965;-60
2023/05/24 02:28:35;;;;;;;;;;;;;;;7.27;77.60;102394.09;5075192;28;20046;-60
2023/05/24 02:31:00;;;;;;;;;;;;;;;7.27;78.04;102390.59;5086375;28;20870;-60
2023/05/24 02:33:25;;;;;;;;;;;;;;;7.22;77.88;102387.41;5070762;28;19917;-60
2023/05/24 02:35:50;;;;;;;;;;;;;;;7.20;78.59;102389.34;5079055;28;19927;-60
2023/05/24 02:38:16;;;;;;;;;;;;;;;7.19;78.49;102392.94;5080538;28;20373;-61
2023/05/24 02:40:41;;;;;;;;;;;;;;;7.19;78.53;102391.13;5077016;28;19955;-61
2023/05/24 02:43:06;;;;;;;;;;;;;;;7.19;78.53;102395.56;5074527;28;20682;-61
2023/05/24 02:45:31;;;;;;;;;;;;;;;7.22;78.26;102398.00;5086454;28;19913;-61
2023/05/24 02:47:56;;;;;;;;;;;;;;;7.24;78.82;102390.81;5072582;28;19946;-61
2023/05/24 02:50:22;;;;;;;;;;;;;;;7.24;78.58;102390.81;5073235;28;19955;-61
2023/05/24 02:52:47;;;;;;;;;;;;;;;7.23;78.75;102392.63;5071838;28;19920;-61
2023/05/24 02:55:12;;;;;;;;;;;;;;;7.21;79.03;102393.66;5089523;28;20400;-61
2023/05/24 02:57:37;;;;;;;;;;;;;;;7.21;79.04;102391.88;5092057;28;19965;-61
2023/05/24 03:00:05;;;;;;;;;;;;;;;7.18;79.43;102391.25;5083697;28;20308;-61
2023/05/24 03:02:32;;;;;;;;;;;;;;;7.14;79.89;102391.47;5084938;28;19965;-61
2023/05/24 03:04:57;;;;;;;;;;;;;;;7.12;79.92;102393.38;5082501;28;20431;-61
2023/05/24 03:07:23;;;;;;;;;;;;;;;7.08;79.88;102385.78;5083132;28;19924;-61
2023/05/24 03:09:48;;;;;;;;;;;;;;;7.07;79.61;102387.59;5084836;28;19946;-61
2023/05/24 03:12:13;;;;;;;;;;;;;;;7.07;80.10;102389.38;5084322;28;19962;-62
2023/05/24 03:14:38;;;;;;;;;;;;;;;7.06;80.09;102383.25;5079330;28;19932;-61
2023/05/24 03:17:03;;;;;;;;;;;;;;;7.05;80.03;102381.56;5082529;28;20309;-61
2023/05/24 03:19:28;;;;;;;;;;;;;;;6.97;80.01;102380.44;5078089;28;19920;-62
2023/05/24 03:21:54;;;;;;;;;;;;;;;6.84;80.14;102375.16;5083275;28;19916;-61
2023/05/24 03:24:19;;;;;;;;;;;;;;;6.73;80.37;102378.56;5082493;28;20401;-61
2023/05/24 03:26:44;;;;;;;;;;;;;;;6.70;80.49;102388.50;5083252;28;20019;-62
2023/05/24 03:29:09;;;;;;;;;;;;;;;6.68;80.72;102382.50;5080183;28;19913;-60
2023/05/24 03:31:35;;;;;;;;;;;;;;;6.70;81.42;102383.22;5080570;28;19999;-61
2023/05/24 03:34:00;;;;;;;;;;;;;;;6.71;81.17;102382.28;5081929;28;19920;-61
2023/05/24 03:36:26;;;;;;;;;;;;;;;6.74;81.17;102379.41;5080612;28;20001;-61
2023/05/24 03:38:51;;;;;;;;;;;;;;;6.79;80.86;102378.13;5078664;28;19920;-62
2023/05/24 03:41:17;;;;;;;;;;;;;;;6.86;80.80;102375.91;5081215;28;20456;-61
2023/05/24 03:43:42;;;;;;;;;;;;;;;6.93;80.77;102374.50;5076173;28;19927;-61
2023/05/24 03:46:07;;;;;;;;;;;;;;;7.01;80.65;102377.47;5079522;28;20338;-61
2023/05/24 03:48:32;;;;;;;;;;;;;;;7.05;81.19;102373.66;5086684;28;20441;-61
2023/05/24 03:50:58;;;;;;;;;;;;;;;7.02;80.98;102371.22;5084039;28;19917;-60
2023/05/24 03:53:23;;;;;;;;;;;;;;;6.98;80.85;102377.69;5085255;28;19969;-61
2023/05/24 03:55:48;;;;;;;;;;;;;;;6.93;80.88;102373.66;5078623;28;20011;-61
2023/05/24 03:58:13;;;;;;;;;;;;;;;6.82;80.72;102371.78;5072317;28;19931;-61
2023/05/24 04:00:38;;;;;;;;;;;;;;;6.71;81.02;102374.34;5078879;28;20026;-61
2023/05/24 04:03:05;;;;;;;;;;;;;;;6.64;81.41;102370.44;5088389;28;19928;-62
2023/05/24 04:05:30;;;;;;;;;;;;;;;6.61;81.92;102362.75;5079823;28;19916;-60
2023/05/24 04:07:56;;;;;;;;;;;;;;;6.62;81.98;102367.91;5079215;28;20003;-61
2023/05/24 04:10:21;;;;;;;;;;;;;;;6.63;82.25;102374.03;5069119;28;19923;-61
2023/05/24 04:12:46;;;;;;;;;;;;;;;6.67;82.21;102371.09;5075075;28;19920;-60
2023/05/24 04:15:15;;;;;;;;;;;;;;;6.69;82.71;102370.97;5079080;28;19923;-60
2023/05/24 04:17:42;;;;;;;;;;;;;;;6.70;83.02;102365.59;5073390;28;20556;-60
2023/05/24 04:20:08;;;;;;;;;;;;;;;6.72;83.50;102373.41;5083612;28;19916;-60
2023/05/24 04:22:35;;;;;;;;;;;;;;;6.71;83.34;102375.19;5077977;28;19916;-60
2023/05/24 04:25:00;;;;;;;;;;;;;;;6.73;83.41;102372.44;5082928;28;19965;-60
2023/05/24 04:27:25;;;;;;;;;;;;;;;6.77;83.58;102373.91;5068936;28;20336;-60
2023/05/24 04:29:51;;;;;;;;;;;;;;;6.81;84.17;102378.88;5082984;28;19985;-60
2023/05/24 04:32:18;;;;;;;;;;;;;;;6.88;84.30;102378.44;5086022;28;19916;-60
2023/05/24 04:34:44;;;;;;;;;;;;;;;6.93;84.43;102377.16;5081813;28;19920;-60
2023/05/24 04:37:09;;;;;;;;;;;;;;;6.99;84.38;102376.72;5072728;28;19916;-62
2023/05/24 04:39:35;;;;;;;;;;;;;;;7.03;84.32;102378.19;5069230;28;19919;-61
2023/05/24 04:42:00;;;;;;;;;;;;;;;7.08;85.05;102377.88;5071016;28;20450;-61
2023/05/24 04:44:26;;;;;;;;;;;;;;;7.15;84.96;102379.09;5079008;28;19920;-62
2023/05/24 04:46:51;;;;;;;;;;;;;;;7.21;85.33;102381.28;5078892;28;19942;-62
2023/05/24 04:49:16;;;;;;;;;;;;;;;7.25;85.38;102379.31;5078592;28;19919;-62
2023/05/24 04:51:41;;;;;;;;;;;;;;;7.27;85.26;102374.75;5071448;28;19917;-62
2023/05/24 04:54:10;;;;;;;;;;;;;;;7.30;85.60;102378.00;5078715;28;19955;-60
2023/05/24 04:56:37;;;;;;;;;;;;;;;7.36;85.58;102377.56;5070138;28;19912;-60
2023/05/24 04:59:03;;;;;;;;;;;;;;;7.40;85.94;102378.16;5078327;28;20382;-61
2023/05/24 05:01:28;;;;;;;;;;;;;;;7.46;86.04;102375.91;5073666;28;19979;-61
2023/05/24 05:03:53;;;;;;;;;;;;;;;7.55;86.43;102384.16;5072952;28;20290;-61
2023/05/24 05:06:18;;;;;;;;;;;;;;;7.64;86.74;102381.66;5076407;28;19923;-61
2023/05/24 05:08:43;;;;;;;;;;;;;;;7.71;86.62;102388.16;5077742;28;19947;-61
2023/05/24 05:11:09;;;;;;;;;;;;;;;7.78;86.83;102393.84;5075991;28;19960;-60
2023/05/24 05:13:34;;;;;;;;;;;;;;;7.86;86.70;102393.28;5074462;28;20393;-62
2023/05/24 05:15:59;;;;;;;;;;;;;;;7.93;86.82;102392.72;5068318;28;19962;-61
2023/05/24 05:18:25;;;;;;;;;;;;;;;8.00;86.93;102393.09;5076044;28;19920;-61
2023/05/24 05:20:50;;;;;;;;;;;;;;;8.07;86.73;102396.94;5083636;28;20388;-62
2023/05/24 05:23:15;;;;;;;;;;;;;;;8.12;86.91;102392.19;5079666;28;19920;-61
2023/05/24 05:25:41;;;;;;;;;;;;;;;8.18;86.79;102407.56;5075081;28;19924;-62
2023/05/24 05:28:06;;;;;;;;;;;;;;;8.22;87.07;102393.16;5069818;28;19970;-61
2023/05/24 05:30:31;;;;;;;;;;;;;;;8.28;87.08;102397.13;5070276;28;19920;-61
2023/05/24 05:32:56;;;;;;;;;;;;;;;8.34;87.29;102391.38;5078804;28;20393;-61
2023/05/24 05:35:21;;;;;;;;;;;;;;;8.41;87.49;102399.72;5078397;28;20042;-62
2023/05/24 05:37:47;;;;;;;;;;;;;;;8.48;87.66;102391.19;5077528;28;20450;-62
2023/05/24 05:40:12;;;;;;;;;;;;;;;8.53;87.85;102399.59;5084257;28;19918;-61
2023/05/24 05:42:37;;;;;;;;;;;;;;;8.59;87.91;102400.94;5081630;28;20296;-60
2023/05/24 05:45:02;;;;;;;;;;;;;;;8.64;87.89;102396.94;5075204;28;19917;-60
2023/05/24 05:47:27;;;;;;;;;;;;;;;8.71;88.04;102404.44;5081685;28;19947;-60
2023/05/24 05:49:53;;;;;;;;;;;;;;;8.77;87.64;102398.66;5081184;28;19924;-60
2023/05/24 05:52:18;;;;;;;;;;;;;;;8.83;87.58;102406.97;5082908;28;19920;-60
2023/05/24 05:54:43;;;;;;;;;;;;;;;8.94;87.34;102412.25;5069302;28;19952;-60
2023/05/24 05:57:10;;;;;;;;;;;;;;;9.05;87.47;102405.28;5073052;28;19924;-59
2023/05/24 05:59:35;;;;;;;;;;;;;;;9.12;86.80;102402.00;5074538;28;20312;-61
2023/05/24 06:02:01;;;;;;;;;;;;;;;9.22;86.95;102399.44;5083441;28;19927;-61
2023/05/24 06:04:26;;;;;;;;;;;;;;;9.38;86.98;102405.22;5081199;28;20368;-60
2023/05/24 06:06:51;;;;;;;;;;;;;;;9.52;87.08;102412.88;5073706;28;19999;-61
2023/05/24 06:09:17;;;;;;;;;;;;;;;9.69;87.10;102415.97;5067869;28;19923;-60
2023/05/24 06:11:43;;;;;;;;;;;;;;;9.83;86.65;102413.00;5074213;28;19917;-60
2023/05/24 06:14:10;;;;;;;;;;;;;;;9.97;86.23;102415.34;5078497;28;20337;-61
2023/05/24 06:16:40;;;;;;;;;;;;;;;10.14;86.08;102412.16;5074245;28;19916;-61
2023/05/24 06:19:05;;;;;;;;;;;;;;;10.29;86.28;102411.84;5081700;28;20401;-60
2023/05/24 06:21:31;;;;;;;;;;;;;;;10.40;85.39;102414.41;5073966;28;19923;-61
2023/05/24 06:23:57;;;;;;;;;;;;;;;10.50;84.44;102423.28;5075295;28;19924;-60
2023/05/24 06:26:22;;;;;;;;;;;;;;;10.47;84.02;102410.28;5072875;28;20340;-61
2023/05/24 06:28:47;;;;;;;;;;;;;;;10.64;84.10;102428.25;5080693;28;20003;-61
2023/05/24 06:31:12;;;;;;;;;;;;;;;10.72;83.60;102431.13;5082127;28;19913;-61
2023/05/24 06:33:37;;;;;;;;;;;;;;;10.81;83.29;102434.78;5072011;28;19973;-61
2023/05/24 06:36:02;;;;;;;;;;;;;;;10.91;82.88;102425.03;5070487;28;19916;-61
2023/05/24 06:38:28;;;;;;;;;;;;;;;10.97;82.50;102416.50;5075675;28;20409;-61
2023/05/24 06:40:53;;;;;;;;;;;;;;;11.03;82.47;102423.97;5086995;28;19962;-62
2023/05/24 06:43:19;;;;;;;;;;;;;;;11.11;82.43;102416.16;5088014;28;19947;-62
2023/05/24 06:45:45;;;;;;;;;;;;;;;11.22;82.49;102428.50;5082390;28;19923;-62
2023/05/24 06:48:10;;;;;;;;;;;;;;;11.30;81.75;102428.66;5070536;28;19999;-62
2023/05/24 06:50:36;;;;;;;;;;;;;;;11.39;81.59;102425.19;5089649;28;19912;-62
2023/05/24 06:53:01;;;;;;;;;;;;;;;11.51;81.31;102427.72;5081818;28;19920;-62
2023/05/24 06:55:27;;;;;;;;;;;;;;;11.61;81.11;102424.09;5078868;28;20855;-62
2023/05/24 06:57:52;;;;;;;;;;;;;;;11.68;80.47;102424.38;5078624;28;19970;-62
2023/05/24 07:00:17;;;;;;;;;;;;;;;11.74;80.25;102423.81;5072783;28;19970;-62
2023/05/24 07:02:42;;;;;;;;;;;;;;;11.79;80.39;102421.59;5089171;28;19959;-62
2023/05/24 07:05:11;;;;;;;;;;;;;;;11.88;80.12;102420.78;5073105;28;19951;-62
2023/05/24 07:07:37;;;;;;;;;;;;;;;11.98;79.88;102418.94;5070441;28;19952;-62
2023/05/24 07:10:02;;;;;;;;;;;;;;;12.02;79.09;102417.69;5077721;28;19920;-63
2023/05/24 07:12:27;;;;;;;;;;;;;;;12.01;79.04;102424.00;5070677;28;22162;-62
2023/05/24 07:14:54;;;;;;;;;;;;;;;12.07;78.89;102433.22;5077301;28;19920;-62
2023/05/24 07:17:20;;;;;;;;;;;;;;;12.14;78.39;102436.16;5078676;28;19966;-62
2023/05/24 07:19:45;;;;;;;;;;;;;;;12.22;78.23;102434.50;5078718;28;19919;-62
2023/05/24 07:22:10;;;;;;;;;;;;;;;12.35;78.40;102429.69;5086514;28;20368;-62
2023/05/24 07:24:35;;;;;;;;;;;;;;;12.46;77.79;102428.72;5085714;28;20553;-62
2023/05/24 07:27:01;;;;;;;;;;;;;;;12.51;77.34;102429.13;5086104;28;19916;-62
2023/05/24 07:29:26;;;;;;;;;;;;;;;12.52;76.41;102425.47;5069439;28;19943;-62
2023/05/24 07:31:54;;;;;;;;;;;;;;;12.56;76.07;102426.84;5081926;28;19968;-62
2023/05/24 07:34:20;;;;;;;;;;;;;;;12.60;75.43;102441.56;5082090;28;19919;-62
2023/05/24 07:36:47;;;;;;;;;;;;;;;12.62;74.91;102436.91;5089528;28;19912;-62
2023/05/24 07:39:14;;;;;;;;;;;;;;;12.65;74.26;102436.63;5074829;28;19920;-61
2023/05/24 07:41:39;;;;;;;;;;;;;;;12.68;73.57;102443.50;5089565;28;19998;-62
2023/05/24 07:44:05;;;;;;;;;;;;;;;12.73;73.36;102443.09;5072300;28;20370;-62
2023/05/24 07:46:30;;;;;;;;;;;;;;;12.75;73.28;102446.44;5086642;28;19912;-62
2023/05/24 07:48:55;;;;;;;;;;;;;;;12.80;72.93;102441.50;5074391;28;19917;-62
2023/05/24 07:51:21;;;;;;;;;;;;;;;12.86;72.19;102441.75;5072248;28;20663;-62
2023/05/24 07:53:46;;;;;;;;;;;;;;;12.93;72.30;102434.00;5082574;28;19916;-62
2023/05/24 07:56:11;;;;;;;;;;;;;;;12.99;71.87;102438.75;5078401;28;20337;-62
2023/05/24 07:58:39;;;;;;;;;;;;;;;13.02;71.66;102441.16;5075644;28;19916;-62
2023/05/24 08:01:05;;;;;;;;;;;;;;;13.06;71.21;102450.53;5079393;28;19916;-62
2023/05/24 08:03:31;;;;;;;;;;;;;;;13.06;70.93;102439.84;5081827;28;19931;-62
2023/05/24 08:05:56;;;;;;;;;;;;;;;13.11;71.06;102448.25;5084227;28;19912;-62
2023/05/24 08:08:21;;;;;;;;;;;;;;;13.20;71.09;102452.72;5075533;28;19916;-62
2023/05/24 08:10:47;;;;;;;;;;;;;;;13.28;70.40;102438.63;5070355;28;19920;-62
2023/05/24 08:13:12;;;;;;;;;;;;;;;13.35;70.10;102445.06;5070769;28;19916;-62
2023/05/24 08:15:37;;;;;;;;;;;;;;;13.39;70.08;102441.13;5079406;28;19920;-62
2023/05/24 08:18:03;;;;;;;;;;;;;;;13.44;69.74;102440.66;5081698;28;19958;-62
2023/05/24 08:20:29;;;;;;;;;;;;;;;13.48;69.84;102442.03;5083666;28;19920;-62
2023/05/24 08:22:54;;;;;;;;;;;;;;;13.48;69.47;102442.03;5084910;28;19970;-62
2023/05/24 08:25:19;;;;;;;;;;;;;;;13.54;69.53;102450.28;5078625;28;20003;-62
2023/05/24 08:27:45;;;;;;;;;;;;;;;13.61;68.63;102439.84;5076177;28;20518;-62
2023/05/24 08:30:12;;;;;;;;;;;;;;;13.58;68.21;102440.97;5083890;28;20025;-62
2023/05/24 08:32:38;;;;;;;;;;;;;;;13.56;68.14;102447.44;5074699;28;20381;-62
2023/05/24 08:35:03;;;;;;;;;;;;;;;13.57;68.10;102443.78;5077398;28;19969;-62
2023/05/24 08:37:30;;;;;;;;;;;;;;;13.58;68.12;102437.47;5083809;28;19928;-62
2023/05/24 08:39:55;;;;;;;;;;;;;;;13.68;68.09;102430.25;5075356;28;19999;-62
2023/05/24 08:42:22;;;;;;;;;;;;;;;13.76;67.16;102422.31;5083659;28;20008;-62
2023/05/24 08:44:52;;;;;;;;;;;;;;;13.82;66.95;102424.34;5078957;28;19916;-62
2023/05/24 08:47:18;;;;;;;;;;;;;;;13.87;66.64;102423.88;5085341;28;19963;-61
2023/05/24 08:49:44;;;;;;;;;;;;;;;13.95;66.60;102421.31;5081097;28;20388;-61
2023/05/24 08:52:11;;;;;;;;;;;;;;;14.09;66.38;102422.59;5087979;28;19919;-63
2023/05/24 08:54:37;;;;;;;;;;;;;;;14.13;66.24;102415.94;5084995;28;20413;-61
2023/05/24 08:57:03;;;;;;;;;;;;;;;14.12;65.66;102416.94;5076257;28;20373;-61
2023/05/24 08:59:28;;;;;;;;;;;;;;;14.15;65.35;102412.09;5082559;28;20066;-61
2023/05/24 09:01:53;;;;;;;;;;;;;;;14.23;64.07;102406.84;5090288;28;19923;-61
2023/05/24 09:04:22;;;;;;;;;;;;;;;14.19;64.21;102410.00;5081738;28;19920;-61
2023/05/24 09:06:47;;;;;;;;;;;;;;;14.34;64.09;102415.59;5087256;28;20450;-61
2023/05/24 09:09:15;;;;;;;;;;;;;;;14.64;63.29;102409.78;5071697;28;19948;-61
2023/05/24 09:11:41;;;;;;;;;;;;;;;14.97;62.34;102404.59;5081721;28;19920;-61
2023/05/24 09:14:06;;;;;;;;;;;;;;;15.29;62.05;102411.91;5076987;28;19919;-62
2023/05/24 09:16:32;;;;;;;;;;;;;;;15.46;61.61;102400.25;5073754;28;19924;-61
2023/05/24 09:18:57;;;;;;;;;;;;;;;15.33;61.63;102408.75;5082306;28;20339;-61
2023/05/24 09:21:23;;;;;;;;;;;;;;;15.32;60.93;102403.53;5080909;28;19943;-62
2023/05/24 09:23:49;;;;;;;;;;;;;;;15.28;61.45;102403.03;5081909;28;20445;-61
2023/05/24 09:26:14;;;;;;;;;;;;;;;15.31;61.72;102401.88;5091673;28;19916;-61
2023/05/24 09:28:40;;;;;;;;;;;;;;;15.14;60.90;102409.03;5072719;28;20301;-61
2023/05/24 09:31:06;;;;;;;;;;;;;;;15.09;60.31;102406.00;5089431;28;19916;-61
2023/05/24 09:33:32;;;;;;;;;;;;;;;15.10;60.64;102405.00;5080166;28;19920;-61
2023/05/24 09:35:57;;;;;;;;;;;;;;;15.12;60.65;102408.34;5082652;28;20039;-61
2023/05/24 09:38:24;;;;;;;;;;;;;;;15.06;60.35;102415.19;5078194;28;20048;-62
2023/05/24 09:41:10;;;;;;;;;;;;;;;15.12;60.77;102409.19;5084441;28;20006;-61
2023/05/24 09:43:46;;;;;;;;;;;;;;;15.42;60.54;102409.59;5081789;28;19920;-62
2023/05/24 09:46:15;;;;;;;;;;;;;;;15.75;60.59;102411.34;5074068;28;19947;-61
2023/05/24 09:48:53;;;;;;;;;;;;;;;15.98;60.07;102413.38;5082457;28;19916;-61
2023/05/24 09:51:20;;;;;;;;;;;;;;;16.25;59.70;102405.00;5073445;28;19917;-62
2023/05/24 09:53:47;;;;;;;;;;;;;;;16.59;59.01;102401.22;5067851;28;19927;-61
2023/05/24 09:56:12;;;;;;;;;;;;;;;16.83;57.83;102403.88;5078461;28;19923;-61
2023/05/24 09:58:38;;;;;;;;;;;;;;;17.12;56.23;102402.41;5081732;28;19920;-61
2023/05/24 10:01:06;;;;;;;;;;;;;;;17.36;55.09;102404.97;5083330;28;19915;-61
2023/05/24 10:03:32;;;;;;;;;;;;;;;17.45;54.26;102403.06;5067448;28;20126;-61
2023/05/24 10:05:57;;;;;;;;;;;;;;;17.39;53.47;102409.97;5078903;28;19920;-61
2023/05/24 10:08:23;;;;;;;;;;;;;;;17.31;53.44;102404.63;5065150;28;19917;-61
2023/05/24 10:10:48;;;;;;;;;;;;;;;17.27;54.04;102398.78;5070997;28;20325;-60
2023/05/24 10:13:15;;;;;;;;;;;;;;;17.44;54.45;102396.84;5067628;28;20031;-61
2023/05/24 10:15:40;;;;;;;;;;;;;;;17.73;54.42;102398.03;5086046;28;19959;-61
2023/05/24 10:18:07;;;;;;;;;;;;;;;18.06;53.69;102402.13;5071693;28;19955;-61
2023/05/24 10:20:32;;;;;;;;;;;;;;;18.18;52.23;102376.44;5075793;28;19921;-61
2023/05/24 10:23:03;;;;;;;;;;;;;;;18.21;51.71;102384.16;5082091;28;19920;-61
2023/05/24 10:25:31;;;;;;;;;;;;;;;18.14;51.43;102395.81;5074290;28;20308;-61
2023/05/24 10:27:57;;;;;;;;;;;;;;;18.08;50.81;102392.00;5070945;28;19924;-61
2023/05/24 10:30:30;;;;;;;;;;;;;;;18.00;50.58;102392.09;5070403;28;20293;-61
2023/05/24 10:32:56;;;;;;;;;;;;;;;17.88;50.28;102391.66;5080075;28;19916;-61
2023/05/24 10:35:22;;;;;;;;;;;;;;;17.81;50.67;102392.59;5074030;28;19923;-61
2023/05/24 10:37:47;;;;;;;;;;;;;;;17.67;50.35;102402.28;5081640;28;19923;-61
2023/05/24 10:40:19;;;;;;;;;;;;;;;17.48;50.97;102395.47;5072789;28;20089;-61
2023/05/24 10:42:46;;;;;;;;;;;;;;;17.31;51.49;102396.59;5070965;28;19923;-61
2023/05/24 10:45:23;;;;;;;;;;;;;;;17.21;51.93;102393.28;5078954;28;19927;-60
2023/05/24 10:47:48;;;;;;;;;;;;;;;17.17;52.30;102395.50;5085050;28;19927;-60
2023/05/24 10:50:17;;;;;;;;;;;;;;;17.16;52.30;102395.69;5072538;28;19916;-60
2023/05/24 10:52:43;;;;;;;;;;;;;;;17.12;52.45;102402.41;5070256;28;20577;-61
2023/05/24 10:55:09;;;;;;;;;;;;;;;17.07;52.33;102397.56;5071242;28;19978;-61
2023/05/24 10:57:34;;;;;;;;;;;;;;;17.03;52.69;102397.06;5086185;28;19958;-60
2023/05/24 11:00:18;;;;;;;;;;;;;;;17.04;52.81;102396.03;5076032;28;19916;-61
2023/05/24 11:02:47;;;;;;;;;;;;;;;17.06;52.51;102398.59;5087621;28;19923;-61
2023/05/24 11:05:13;;;;;;;;;;;;;;;17.07;52.79;102402.09;5081473;28;19928;-61
2023/05/24 11:07:41;;;;;;;;;;;;;;;17.01;52.29;102395.56;5075331;28;20381;-61
2023/05/24 11:10:14;;;;;;;;;;;;;;;16.93;52.19;102393.75;5076404;28;20381;-61
2023/05/24 11:12:40;;;;;;;;;;;;;;;16.85;52.05;102393.81;5073008;28;20404;-60
2023/05/24 11:15:07;;;;;;;;;;;;;;;16.87;52.44;102394.47;5071656;28;19955;-61
2023/05/24 11:17:52;;;;;;;;;;;;;;;16.92;52.41;102396.63;5070672;28;19927;-60
2023/05/24 11:20:19;;;;;;;;;;;;;;;17.01;52.45;102396.41;5068954;28;19912;-61
2023/05/24 11:22:44;;;;;;;;;;;;;;;17.07;52.49;102394.06;5070041;28;19917;-61
2023/05/24 11:25:11;;;;;;;;;;;;;;;17.09;52.18;102389.34;5076883;28;19923;-61
2023/05/24 11:27:41;;;;;;;;;;;;;;;17.01;51.99;102395.56;5073109;28;19938;-61
2023/05/24 11:30:08;;;;;;;;;;;;;;;17.06;52.60;102392.34;5074955;28;19931;-61
2023/05/24 11:32:33;;;;;;;;;;;;;;;17.17;52.56;102390.13;5077558;28;19920;-61
2023/05/24 11:34:58;;;;;;;;;;;;;;;17.25;52.29;102392.75;5071054;28;19920;-61
2023/05/24 11:37:23;;;;;;;;;;;;;;;17.27;52.46;102389.91;5074371;28;19916;-61
2023/05/24 11:39:52;;;;;;;;;;;;;;;17.31;52.33;102396.59;5092252;28;19923;-61
2023/05/24 11:42:18;;;;;;;;;;;;;;;17.37;52.21;102395.91;5075904;28;19924;-61
2023/05/24 11:44:43;;;;;;;;;;;;;;;17.38;52.09;102386.00;5076637;28;20011;-62
2023/05/24 11:47:08;;;;;;;;;;;;;;;17.40;51.93;102390.16;5078190;28;20329;-61
2023/05/24 11:49:34;;;;;;;;;;;;;;;17.41;52.08;102382.94;5077500;28;19912;-61
2023/05/24 11:52:00;;;;;;;;;;;;;;;17.47;51.87;102390.28;5072917;28;19993;-61
2023/05/24 11:54:26;;;;;;;;;;;;;;;17.54;51.96;102389.38;5073937;28;19916;-61
2023/05/24 11:56:51;;;;;;;;;;;;;;;17.66;51.94;102387.13;5077807;28;19943;-61
2023/05/24 11:59:21;;;;;;;;;;;;;;;17.73;51.31;102377.38;5073113;28;19924;-61
2023/05/24 12:01:46;;;;;;;;;;;;;;;17.88;51.16;102372.84;5088425;28;20007;-61
2023/05/24 12:04:11;;;;;;;;;;;;;;;18.01;50.85;102374.09;5069092;28;20015;-61
2023/05/24 12:06:38;;;;;;;;;;;;;;;18.09;50.99;102368.66;5079032;28;19917;-61
2023/05/24 12:09:07;;;;;;;;;;;;;;;18.17;50.41;102366.72;5084724;28;19920;-61
2023/05/24 12:11:33;;;;;;;;;;;;;;;18.28;50.44;102368.13;5074541;28;19924;-61
2023/05/24 12:13:58;;;;;;;;;;;;;;;18.32;49.83;102364.06;5079721;28;19931;-61
2023/05/24 12:16:25;;;;;;;;;;;;;;;18.36;49.77;102364.50;5075578;28;19916;-61
2023/05/24 12:18:51;;;;;;;;;;;;;;;18.42;49.86;102375.34;5074393;28;19912;-61
2023/05/24 12:21:16;;;;;;;;;;;;;;;18.47;49.26;102377.50;5069762;28;20058;-62
2023/05/24 12:23:41;;;;;;;;;;;;;;;18.51;49.16;102376.97;5070923;28;19921;-62
2023/05/24 12:26:06;;;;;;;;;;;;;;;18.55;48.98;102369.34;5073547;28;20365;-62
2023/05/24 12:28:35;;;;;;;;;;;;;;;18.52;48.00;102373.25;5076396;28;19959;-62
2023/05/24 12:31:00;;;;;;;;;;;;;;;18.45;48.05;102376.84;5073835;28;20407;-62
2023/05/24 12:33:25;;;;;;;;;;;;;;;18.39;48.43;102375.72;5072376;28;19977;-60
2023/05/24 12:35:52;;;;;;;;;;;;;;;18.29;48.29;102364.41;5069955;28;19912;-62